KHYWKGRD

Guest
Details From KHYW - Conway Horry Co
To KGRD - GREENWOOD CO
Flight Number -
Tags generated
Created
Modified
Stats Distance 153 nm / 284 km
Max Altitude 12,000 ft / 3,658 m
Waypoints 3
Social Downloads 0
Likes 0
Share VATSIM

Download

Looking for another format? Having issues loading an existing format? Contact us
Advertisement - Login to hide

Notes

Basic altitude profile: - Ascent Rate: 1500ft/min - Ascent Speed: 70kts - Cruise Altitude: 4000ft - Cruise Speed: 90kts - Descent Rate: 500ft/min - Descent Speed: 100kts Options: - Use NATs: yes - Use PACOTS: yes - Use low airways: yes - Use high airways: yes

Route

KHYW BEFTY KGRD

ID Type Via Altitude Latitude Longitude Leg Dist Tot Dist Heading (true) Name
O KHYW APT - 0 ft / 0 m 33.82848˚ -79.12218˚ - 0 nm - Conway Horry Co
BEFTY FIX - 12,000 ft / 3,658 m 34.14021˚ -81.03249˚ 96 nm 96 nm 282° / 281° -
O KGRD APT - 0 ft / 0 m 34.24873˚ -82.15907˚ 56 nm 153 nm 277° / 276° GREENWOOD CO

Altitude Profile

Advertisement - Login to hide

KHYW

Details ICAO KHYW
Name Conway Horry Co
Region United States
Timezone America/New_York (UTC-5.0)
Stats Elevation 34 ft / 10 m (AMSL)
Location 33.828485° -79.122178°
Runways 1
Magnetic Variation 8.619° W

METAR

KHYW 150235Z AUTO 00000KT 5SM BR CLR 03/03 A2999 RMK AO2

Decode

TAF

Not found

Departure Runways

ID Width Length Bearing (true) Bearing (mag) Surface Threshold Offset Overrun Length
04 75 ft / 23 m 4,407 ft / 1,343 m 31.70° 40.32° Asphalt 0 ft / 0 m 0 ft / 0 m
22 75 ft / 23 m 4,407 ft / 1,343 m 211.70° 220.32° Asphalt 0 ft / 0 m 0 ft / 0 m

KGRD

Details ICAO KGRD
Name GREENWOOD CO
Region United States
Timezone America/New_York (UTC-5.0)
Stats Elevation 631 ft / 192 m (AMSL)
Location 34.248731° -82.159070°
Runways 1
Magnetic Variation 6.726° W

METAR

KGRD 150156Z AUTO 22008KT 10SM CLR 07/02 A2997 RMK AO2 SLP150 T00720017

Decode

TAF

Not found

Destination Runways

ID Width Length Bearing (true) Bearing (mag) Surface Threshold Offset Overrun Length
09 100 ft / 30 m 4,994 ft / 1,522 m 85.17° 91.90° Asphalt 0 ft / 0 m 0 ft / 0 m
27 100 ft / 30 m 4,994 ft / 1,522 m 265.18° 271.91° Asphalt 0 ft / 0 m 0 ft / 0 m